createdAt,value
2022-10-23T00:01:26.359Z,105.78
2022-10-23T00:03:55.574Z,105.89
2022-10-23T00:06:22.745Z,105.89
2022-10-23T00:08:50.254Z,106.24
2022-10-23T00:11:21.558Z,106.32
2022-10-23T00:13:48.723Z,106.10
2022-10-23T00:16:15.737Z,106.46
2022-10-23T00:18:42.904Z,106.53
2022-10-23T00:21:12.253Z,106.39
2022-10-23T00:23:40.598Z,106.45
2022-10-23T00:26:08.256Z,106.32
2022-10-23T00:28:35.223Z,106.31
2022-10-23T00:31:03.446Z,106.50
2022-10-23T00:33:30.247Z,106.50
2022-10-23T00:35:56.934Z,106.85
2022-10-23T00:38:23.800Z,106.50
2022-10-23T00:40:51.484Z,106.26
2022-10-23T00:43:21.397Z,105.89
2022-10-23T00:45:48.634Z,105.99
2022-10-23T00:48:16.783Z,105.80
2022-10-23T00:50:44.283Z,105.68
2022-10-23T00:53:12.893Z,105.31
2022-10-23T00:55:45.859Z,105.35
2022-10-23T00:58:18.410Z,105.15
2022-10-23T01:00:48.405Z,105.68
2022-10-23T01:03:17.835Z,105.76
2022-10-23T01:06:18.958Z,105.76
2022-10-23T01:08:48.467Z,105.80
2022-10-23T01:11:28.940Z,106.10
2022-10-23T01:13:58.697Z,106.33
2022-10-23T01:16:46.586Z,106.37
2022-10-23T01:19:31.643Z,106.42
2022-10-23T01:22:19.957Z,106.78
2022-10-23T01:25:05.714Z,107.25
2022-10-23T01:27:42.635Z,107.00
2022-10-23T01:30:12.960Z,107.11
2022-10-23T01:33:04.621Z,107.10
2022-10-23T01:35:38.050Z,107.55
2022-10-23T01:38:22.925Z,107.69
2022-10-23T01:41:13.277Z,108.16
2022-10-23T01:43:45.914Z,108.07
2022-10-23T01:46:16.143Z,107.99
2022-10-23T01:48:48.972Z,108.20
2022-10-23T01:51:17.393Z,108.15
2022-10-23T01:53:46.596Z,108.22
2022-10-23T01:56:18.582Z,108.41
2022-10-23T01:58:51.549Z,108.67
2022-10-23T02:01:22.027Z,108.37
2022-10-23T02:03:50.948Z,108.43
2022-10-23T02:06:17.707Z,108.88
2022-10-23T02:08:44.633Z,109.14
2022-10-23T02:11:15.541Z,109.38
2022-10-23T02:13:59.811Z,109.46
2022-10-23T02:16:40.874Z,109.26
2022-10-23T02:19:24.835Z,109.21
2022-10-23T02:22:14.203Z,109.06
2022-10-23T02:24:53.169Z,109.20
2022-10-23T02:27:37.221Z,109.36
2022-10-23T02:30:07.997Z,109.52
2022-10-23T02:32:36.531Z,109.61
2022-10-23T02:35:03.425Z,109.50
2022-10-23T02:37:30.251Z,109.48
2022-10-23T02:39:57.130Z,109.62
2022-10-23T02:42:32.115Z,109.60
2022-10-23T02:45:04.733Z,109.50
2022-10-23T02:48:01.816Z,109.50
2022-10-23T02:50:51.928Z,109.89
2022-10-23T02:53:36.907Z,109.89
2022-10-23T02:56:19.165Z,109.71
2022-10-23T02:58:56.800Z,109.72
2022-10-23T03:01:29.267Z,109.62
2022-10-23T03:03:59.992Z,110.07
2022-10-23T03:06:27.191Z,109.70
2022-10-23T03:08:58.460Z,109.78
2022-10-23T03:11:25.227Z,109.88
2022-10-23T03:13:52.148Z,109.67
2022-10-23T03:16:18.899Z,109.81
2022-10-23T03:18:45.565Z,109.59
2022-10-23T03:21:12.335Z,109.63
2022-10-23T03:23:38.970Z,109.80
2022-10-23T03:26:05.892Z,109.83
2022-10-23T03:28:32.783Z,109.59
2022-10-23T03:31:02.070Z,109.78
2022-10-23T03:33:30.266Z,109.71
2022-10-23T03:35:57.025Z,109.47
2022-10-23T03:38:23.713Z,109.39
2022-10-23T03:40:50.451Z,109.61
2022-10-23T03:43:17.225Z,109.63
2022-10-23T03:45:43.957Z,109.53
2022-10-23T03:48:10.814Z,109.80
2022-10-23T03:50:37.621Z,109.84
2022-10-23T03:53:04.367Z,109.74
2022-10-23T03:55:32.164Z,109.70
2022-10-23T03:57:58.749Z,109.95
2022-10-23T04:00:25.488Z,110.31
2022-10-23T04:02:52.218Z,110.33
2022-10-23T04:05:18.929Z,110.75
2022-10-23T04:07:45.561Z,111.34
2022-10-23T04:10:12.542Z,112.07
2022-10-23T04:12:39.296Z,112.28
2022-10-23T04:15:06.359Z,112.50
2022-10-23T04:17:33.309Z,112.62
2022-10-23T04:20:00.214Z,112.70
2022-10-23T04:22:28.428Z,112.71
2022-10-23T04:24:55.899Z,112.80
2022-10-23T04:27:23.081Z,113.18
2022-10-23T04:29:50.033Z,113.17
2022-10-23T04:32:16.871Z,113.46
2022-10-23T04:34:43.596Z,113.61
2022-10-23T04:37:10.475Z,113.65
2022-10-23T04:39:37.282Z,113.83
2022-10-23T04:42:04.252Z,113.79
2022-10-23T04:44:31.210Z,113.71
2022-10-23T04:46:57.923Z,113.74
2022-10-23T04:49:24.650Z,113.79
2022-10-23T04:51:51.342Z,113.72
2022-10-23T04:54:18.060Z,113.73
2022-10-23T04:56:44.734Z,113.80
2022-10-23T04:59:11.495Z,114.01
2022-10-23T05:01:38.380Z,114.12
2022-10-23T05:04:05.191Z,114.14
2022-10-23T05:06:31.959Z,114.18
2022-10-23T05:08:58.805Z,114.19
2022-10-23T05:11:25.644Z,114.16
2022-10-23T05:13:52.369Z,114.08
2022-10-23T05:16:40.095Z,113.86
2022-10-23T05:19:10.719Z,114.10
2022-10-23T05:21:39.127Z,114.16
2022-10-23T05:24:06.174Z,114.22
2022-10-23T05:26:32.990Z,114.25
2022-10-23T05:28:59.920Z,114.18
2022-10-23T05:31:26.773Z,114.21
2022-10-23T05:33:56.272Z,114.20
2022-10-23T05:36:24.631Z,114.28
2022-10-23T05:38:51.610Z,114.42
2022-10-23T05:41:18.493Z,114.41
2022-10-23T05:43:46.191Z,114.38
2022-10-23T05:46:13.110Z,114.35
2022-10-23T05:48:39.784Z,114.38
2022-10-23T05:51:11.547Z,114.36
2022-10-23T05:53:40.376Z,114.65
2022-10-23T05:56:09.723Z,114.77
2022-10-23T05:58:36.837Z,114.77
2022-10-23T06:01:12.335Z,114.70
2022-10-23T06:03:40.267Z,114.67
2022-10-23T06:06:07.767Z,114.80
2022-10-23T06:08:35.481Z,114.83
2022-10-23T06:11:07.649Z,114.82
2022-10-23T06:13:34.379Z,114.77
2022-10-23T06:16:09.913Z,115.24
2022-10-23T06:18:36.890Z,115.30
2022-10-23T06:21:03.928Z,115.42
2022-10-23T06:23:32.594Z,115.71
2022-10-23T06:25:59.643Z,115.68
2022-10-23T06:28:27.743Z,115.86
2022-10-23T06:30:54.567Z,115.90
2022-10-23T06:33:21.358Z,115.81
2022-10-23T06:35:48.207Z,115.89
2022-10-23T06:38:15.191Z,115.82
2022-10-23T06:40:41.911Z,115.77
2022-10-23T06:43:08.635Z,115.78
2022-10-23T06:45:35.421Z,115.62
2022-10-23T06:48:02.155Z,115.63
2022-10-23T06:50:32.206Z,115.61
2022-10-23T06:52:58.980Z,115.54
2022-10-23T06:55:25.782Z,115.35
2022-10-23T06:57:53.570Z,115.31
2022-10-23T07:00:21.575Z,115.28
2022-10-23T07:02:48.714Z,115.35
2022-10-23T07:05:15.658Z,115.43
2022-10-23T07:07:42.947Z,115.38
2022-10-23T07:10:10.229Z,115.33
2022-10-23T07:12:37.243Z,115.35
2022-10-23T07:15:04.209Z,115.33
2022-10-23T07:17:31.056Z,115.39
2022-10-23T07:19:57.807Z,115.31
2022-10-23T07:22:24.639Z,115.34
2022-10-23T07:24:51.421Z,115.49
2022-10-23T07:27:18.189Z,115.54
2022-10-23T07:29:45.107Z,115.47
2022-10-23T07:32:12.169Z,115.42
2022-10-23T07:34:39.138Z,115.39
2022-10-23T07:37:05.789Z,115.13
2022-10-23T07:39:32.487Z,115.07
2022-10-23T07:41:59.458Z,115.04
2022-10-23T07:44:27.744Z,114.93
2022-10-23T07:46:54.777Z,115.06
2022-10-23T07:49:21.487Z,115.04
2022-10-23T07:51:51.241Z,114.89
2022-10-23T07:54:18.596Z,114.90
2022-10-23T07:56:45.471Z,114.86
2022-10-23T07:59:13.092Z,114.89
2022-10-23T08:01:42.560Z,114.95
2022-10-23T08:04:10.710Z,114.86
2022-10-23T08:06:38.295Z,114.64
2022-10-23T08:09:06.732Z,114.66
2022-10-23T08:11:35.744Z,114.58
2022-10-23T08:14:04.982Z,114.54
2022-10-23T08:16:34.492Z,114.48
2022-10-23T08:19:02.176Z,114.57
2022-10-23T08:21:29.123Z,114.48
2022-10-23T08:23:58.031Z,114.44
2022-10-23T08:26:25.600Z,114.14
2022-10-23T08:28:53.152Z,114.03
2022-10-23T08:31:22.015Z,113.96
2022-10-23T08:36:23.163Z,114.31
2022-10-23T08:38:50.804Z,114.21
2022-10-23T08:41:40.102Z,113.83
2022-10-23T08:44:18.279Z,113.69
2022-10-23T08:46:49.440Z,113.62
2022-10-23T08:49:45.601Z,113.66
2022-10-23T08:52:52.268Z,113.42
2022-10-23T08:55:26.373Z,113.47
2022-10-23T08:58:06.474Z,113.20
2022-10-23T09:00:33.894Z,113.49
2022-10-23T09:03:04.214Z,113.32
2022-10-23T09:05:39.494Z,113.21
2022-10-23T09:08:25.538Z,113.51
2022-10-23T09:10:59.004Z,113.56
2022-10-23T09:13:48.526Z,113.50
2022-10-23T09:16:43.573Z,113.34
2022-10-23T09:19:14.630Z,113.54
2022-10-23T09:21:41.713Z,113.41
2022-10-23T09:24:20.157Z,113.44
2022-10-23T09:26:49.617Z,113.26
2022-10-23T09:29:26.262Z,113.22
2022-10-23T09:31:57.888Z,112.95
2022-10-23T09:34:30.181Z,112.94
2022-10-23T09:36:59.619Z,113.08
2022-10-23T09:39:32.703Z,112.95
2022-10-23T09:42:02.434Z,112.91
2022-10-23T09:44:34.116Z,113.09
2022-10-23T09:47:00.805Z,112.92
2022-10-23T09:49:30.266Z,112.47
2022-10-23T09:52:06.056Z,112.35
2022-10-23T09:54:37.059Z,112.09
2022-10-23T09:57:23.156Z,111.82
2022-10-23T10:00:03.837Z,111.99
2022-10-23T10:02:36.427Z,111.52
2022-10-23T10:05:27.044Z,110.36
2022-10-23T10:08:18.081Z,110.30
2022-10-23T10:10:51.419Z,110.39
2022-10-23T10:13:33.231Z,110.54
2022-10-23T10:16:08.703Z,110.23
2022-10-23T10:18:40.076Z,110.10
2022-10-23T10:21:27.733Z,109.60
2022-10-23T10:24:31.973Z,108.75
2022-10-23T10:27:14.477Z,108.98
2022-10-23T10:30:08.187Z,108.80
2022-10-23T10:33:05.988Z,107.95
2022-10-23T10:35:48.440Z,108.08
2022-10-23T10:38:24.779Z,107.64
2022-10-23T10:41:12.720Z,106.43
2022-10-23T10:44:01.454Z,107.13
2022-10-23T10:46:36.222Z,106.66
2022-10-23T10:49:21.873Z,104.89
2022-10-23T10:52:00.760Z,104.47
2022-10-23T10:54:45.898Z,103.12
2022-10-23T10:57:41.912Z,100.70
2022-10-23T11:00:20.804Z,96.86
2022-10-23T11:03:06.175Z,92.22
2022-10-23T11:05:44.425Z,90.69
2022-10-23T11:08:27.938Z,91.32
2022-10-23T11:11:00.290Z,92.53
2022-10-23T11:13:36.359Z,92.24
2022-10-23T11:16:26.540Z,91.53
2022-10-23T11:19:03.092Z,90.84
2022-10-23T11:21:54.242Z,89.40
2022-10-23T11:24:38.881Z,87.64
2022-10-23T11:27:12.023Z,89.51
2022-10-23T11:30:12.493Z,89.35
2022-10-23T11:32:51.378Z,87.86
2022-10-23T11:35:39.415Z,89.18
2022-10-23T11:38:18.808Z,90.81
2022-10-23T11:41:27.120Z,90.50
2022-10-23T11:44:01.508Z,90.56
2022-10-23T11:46:29.988Z,90.73
2022-10-23T11:48:57.354Z,90.39
2022-10-23T11:51:40.677Z,89.33
2022-10-23T11:54:10.454Z,90.52
2022-10-23T11:57:11.050Z,89.63
2022-10-23T11:59:52.158Z,88.65
2022-10-23T12:02:32.909Z,89.99
2022-10-23T12:05:09.885Z,89.57
2022-10-23T12:07:38.902Z,89.56
2022-10-23T12:10:45.855Z,87.81
2022-10-23T12:13:37.687Z,89.90
2022-10-23T12:16:07.748Z,89.18
2022-10-23T12:18:52.976Z,89.10
2022-10-23T12:21:27.976Z,89.12
2022-10-23T12:24:10.135Z,88.63
2022-10-23T12:27:02.624Z,87.96
2022-10-23T12:29:53.817Z,87.36
2022-10-23T12:32:54.349Z,86.09
2022-10-23T12:35:48.769Z,88.13
2022-10-23T12:38:19.504Z,85.68
2022-10-23T12:41:09.328Z,86.11
2022-10-23T12:43:37.825Z,85.97
2022-10-23T12:46:34.916Z,85.72
2022-10-23T12:49:04.017Z,85.78
2022-10-23T12:51:35.344Z,85.78
2022-10-23T12:54:02.868Z,86.57
2022-10-23T12:56:39.094Z,86.92
2022-10-23T12:59:15.942Z,85.43
2022-10-23T13:01:43.515Z,86.75
2022-10-23T13:04:10.622Z,84.67
2022-10-23T13:06:38.878Z,84.47
2022-10-23T13:09:07.454Z,85.05
2022-10-23T13:11:35.022Z,84.82
2022-10-23T13:14:02.019Z,84.93
2022-10-23T13:16:28.902Z,85.87
2022-10-23T13:18:55.729Z,86.74
2022-10-23T13:21:23.351Z,86.67
2022-10-23T13:23:51.695Z,85.93
2022-10-23T13:26:24.487Z,85.61
2022-10-23T13:28:51.535Z,85.93
2022-10-23T13:31:18.271Z,85.22
2022-10-23T13:33:52.963Z,85.78
2022-10-23T13:36:23.817Z,86.38
2022-10-23T13:39:02.650Z,85.50
2022-10-23T13:41:36.194Z,84.36
2022-10-23T13:44:03.506Z,84.91
2022-10-23T13:46:30.454Z,85.73
2022-10-23T13:48:57.150Z,86.05
2022-10-23T13:51:27.601Z,86.61
2022-10-23T13:53:55.346Z,88.01
2022-10-23T13:56:24.275Z,88.84
2022-10-23T13:58:51.167Z,88.31
2022-10-23T14:01:24.879Z,88.78
2022-10-23T14:03:53.288Z,90.20
2022-10-23T14:06:20.761Z,90.86
2022-10-23T14:08:47.915Z,90.75
2022-10-23T14:11:16.250Z,91.63
2022-10-23T14:13:43.803Z,90.89
2022-10-23T14:16:13.086Z,91.07
2022-10-23T14:18:40.411Z,90.70
2022-10-23T14:21:08.615Z,91.23
2022-10-23T14:23:35.351Z,91.18
2022-10-23T14:26:07.566Z,92.00
2022-10-23T14:28:34.360Z,92.02
2022-10-23T14:31:12.643Z,92.15
2022-10-23T14:33:39.788Z,92.87
2022-10-23T14:36:07.344Z,93.06
2022-10-23T14:38:34.553Z,93.32
2022-10-23T14:41:01.664Z,94.10
2022-10-23T14:43:28.524Z,94.45
2022-10-23T14:45:55.255Z,95.15
2022-10-23T14:48:22.198Z,95.29
2022-10-23T14:50:49.879Z,95.59
2022-10-23T14:53:16.930Z,96.01
2022-10-23T14:55:43.931Z,95.94
2022-10-23T14:58:10.632Z,96.24
2022-10-23T15:00:37.584Z,96.72
2022-10-23T15:03:04.386Z,97.17
2022-10-23T15:05:34.855Z,97.52
2022-10-23T15:08:02.276Z,97.30
2022-10-23T15:10:29.055Z,97.69
2022-10-23T15:12:55.730Z,98.17
2022-10-23T15:15:22.712Z,99.58
2022-10-23T15:17:49.657Z,99.29
2022-10-23T15:20:16.476Z,99.52
2022-10-23T15:22:43.511Z,100.07
2022-10-23T15:25:13.149Z,100.29
2022-10-23T15:27:42.619Z,100.45
2022-10-23T15:30:11.095Z,100.66
2022-10-23T15:32:37.877Z,100.80
2022-10-23T15:35:04.906Z,101.29
2022-10-23T15:37:31.740Z,101.49
2022-10-23T15:40:01.260Z,101.73
2022-10-23T15:42:29.229Z,101.93
2022-10-23T15:44:55.942Z,102.02
2022-10-23T15:47:22.781Z,102.06
2022-10-23T15:49:49.387Z,102.09
2022-10-23T15:52:16.146Z,102.28
2022-10-23T15:54:43.202Z,102.31
2022-10-23T15:57:10.566Z,102.25
2022-10-23T15:59:37.282Z,102.79
2022-10-23T16:02:04.435Z,103.02
2022-10-23T16:04:31.318Z,103.21
2022-10-23T16:06:58.124Z,102.98
2022-10-23T16:09:24.786Z,103.36
2022-10-23T16:11:51.626Z,103.47
2022-10-23T16:14:18.353Z,103.90
2022-10-23T16:16:46.170Z,103.70
2022-10-23T16:19:13.646Z,104.08
2022-10-23T16:21:41.678Z,104.02
2022-10-23T16:24:09.046Z,104.21
2022-10-23T16:26:36.692Z,104.18
2022-10-23T16:29:06.476Z,104.49
2022-10-23T16:31:33.735Z,104.31
2022-10-23T16:34:01.777Z,104.57
2022-10-23T16:36:29.326Z,104.69
2022-10-23T16:38:56.163Z,104.64
2022-10-23T16:41:22.987Z,105.01
2022-10-23T16:43:50.344Z,105.11
2022-10-23T16:46:20.303Z,105.44
2022-10-23T16:48:47.967Z,105.49
2022-10-23T16:51:23.531Z,105.50
2022-10-23T16:53:50.841Z,105.84
2022-10-23T16:56:20.166Z,105.74
2022-10-23T16:58:47.043Z,106.10
2022-10-23T17:01:34.110Z,106.21
2022-10-23T17:04:00.960Z,106.45
2022-10-23T17:06:32.515Z,106.27
2022-10-23T17:08:59.575Z,106.57
2022-10-23T17:11:28.893Z,106.45
2022-10-23T17:14:17.615Z,106.86
2022-10-23T17:16:49.699Z,106.95
2022-10-23T17:19:46.345Z,106.95
2022-10-23T17:22:10.854Z,107.04
2022-10-23T17:24:39.232Z,107.22
2022-10-23T17:27:06.240Z,107.08
2022-10-23T17:29:33.130Z,106.68
2022-10-23T17:32:00.267Z,106.75
2022-10-23T17:34:27.159Z,106.59
2022-10-23T17:36:54.919Z,106.85
2022-10-23T17:39:25.942Z,106.76
2022-10-23T17:41:53.515Z,106.85
2022-10-23T17:44:20.460Z,107.19
2022-10-23T17:46:53.950Z,107.08
2022-10-23T17:49:22.115Z,107.00
2022-10-23T17:51:52.448Z,107.37
2022-10-23T17:54:19.539Z,107.37
2022-10-23T17:56:46.591Z,107.92
2022-10-23T17:59:16.237Z,107.67
2022-10-23T18:01:48.127Z,107.68
2022-10-23T18:04:17.646Z,107.95
2022-10-23T18:06:47.357Z,107.88
2022-10-23T18:09:14.945Z,108.17
2022-10-23T18:11:48.092Z,108.09
2022-10-23T18:14:18.362Z,108.11
2022-10-23T18:16:45.869Z,107.99
2022-10-23T18:19:14.242Z,107.89
2022-10-23T18:21:41.161Z,107.59
2022-10-23T18:24:08.195Z,107.59
2022-10-23T18:26:37.510Z,107.59
2022-10-23T18:29:07.859Z,107.46
2022-10-23T18:31:37.122Z,107.37
2022-10-23T18:34:07.593Z,107.46
2022-10-23T18:36:38.374Z,107.55
2022-10-23T18:39:08.013Z,107.49
2022-10-23T18:41:38.915Z,107.37
2022-10-23T18:44:06.435Z,107.48
2022-10-23T18:46:33.958Z,107.47
2022-10-23T18:49:00.869Z,107.59
2022-10-23T18:51:33.284Z,107.51
2022-10-23T18:54:05.679Z,107.62
2022-10-23T18:56:34.096Z,107.69
2022-10-23T18:59:03.950Z,107.53
2022-10-23T19:01:31.774Z,107.62
2022-10-23T19:03:59.840Z,107.73
2022-10-23T19:06:27.729Z,107.81
2022-10-23T19:08:54.516Z,107.94
2022-10-23T19:11:23.764Z,108.01
2022-10-23T19:13:50.695Z,107.91
2022-10-23T19:16:35.227Z,107.79
2022-10-23T19:19:19.282Z,108.09
2022-10-23T19:21:46.215Z,108.23
2022-10-23T19:24:44.736Z,108.15
2022-10-23T19:27:11.783Z,108.65
2022-10-23T19:29:41.136Z,108.27
2022-10-23T19:32:07.793Z,108.29
2022-10-23T19:34:34.696Z,108.14
2022-10-23T19:37:03.627Z,108.23
2022-10-23T19:39:30.495Z,108.37
2022-10-23T19:41:58.423Z,108.40
2022-10-23T19:44:25.075Z,108.28
2022-10-23T19:46:51.764Z,108.13
2022-10-23T19:49:18.733Z,108.04
2022-10-23T19:51:51.039Z,107.85
2022-10-23T19:54:19.295Z,107.90
2022-10-23T19:56:45.986Z,107.81
2022-10-23T19:59:15.697Z,108.09
2022-10-23T20:01:45.144Z,107.86
2022-10-23T20:04:18.345Z,108.15
2022-10-23T20:06:48.013Z,108.07
2022-10-23T20:09:17.797Z,108.11
2022-10-23T20:11:45.319Z,107.95
2022-10-23T20:14:12.797Z,107.92
2022-10-23T20:16:39.745Z,108.11
2022-10-23T20:19:10.004Z,108.22
2022-10-23T20:21:39.194Z,108.59
2022-10-23T20:24:06.662Z,108.60
2022-10-23T20:26:33.638Z,108.36
2022-10-23T20:29:00.461Z,108.59
2022-10-23T20:31:28.130Z,108.91
2022-10-23T20:33:56.362Z,108.86
2022-10-23T20:36:31.594Z,109.01
2022-10-23T20:39:01.373Z,108.97
2022-10-23T20:41:29.039Z,109.00
2022-10-23T20:43:56.258Z,108.97
2022-10-23T20:46:23.363Z,109.05
2022-10-23T20:48:50.561Z,109.17
2022-10-23T20:51:22.783Z,109.03
2022-10-23T20:53:50.749Z,108.88
2022-10-23T20:56:32.463Z,108.86
2022-10-23T20:59:21.683Z,108.76
2022-10-23T21:01:51.380Z,108.67
2022-10-23T21:04:20.441Z,108.52
2022-10-23T21:07:08.863Z,108.53
2022-10-23T21:09:37.669Z,109.20
2022-10-23T21:12:06.430Z,108.86
2022-10-23T21:14:33.649Z,109.11
2022-10-23T21:17:00.499Z,109.02
2022-10-23T21:19:27.410Z,108.93
2022-10-23T21:21:54.996Z,108.94
2022-10-23T21:24:24.103Z,108.86
2022-10-23T21:26:51.002Z,108.93
2022-10-23T21:29:19.364Z,108.85
2022-10-23T21:31:54.797Z,108.78
2022-10-23T21:34:22.237Z,108.52
2022-10-23T21:37:11.522Z,108.70
2022-10-23T21:39:35.769Z,108.46
2022-10-23T21:42:02.479Z,108.44
2022-10-23T21:44:29.272Z,108.63
2022-10-23T21:46:56.183Z,108.51
2022-10-23T21:49:22.935Z,108.75
2022-10-23T21:51:49.808Z,108.75
2022-10-23T21:54:16.499Z,108.56
2022-10-23T21:56:46.364Z,108.56
2022-10-23T21:59:15.880Z,108.64
2022-10-23T22:01:45.314Z,108.81
2022-10-23T22:04:14.239Z,109.10
2022-10-23T22:06:42.093Z,108.96
2022-10-23T22:09:11.422Z,108.94
2022-10-23T22:11:38.226Z,109.26
2022-10-23T22:14:04.944Z,109.26
2022-10-23T22:16:32.110Z,109.50
2022-10-23T22:18:58.768Z,109.36
2022-10-23T22:21:28.292Z,109.13
2022-10-23T22:23:57.550Z,109.14
2022-10-23T22:26:29.202Z,109.20
2022-10-23T22:28:58.413Z,109.00
2022-10-23T22:31:28.466Z,109.34
2022-10-23T22:33:56.117Z,109.17
2022-10-23T22:36:23.301Z,109.36
2022-10-23T22:38:50.091Z,109.45
2022-10-23T22:41:16.986Z,109.30
2022-10-23T22:43:43.862Z,109.64
2022-10-23T22:46:13.671Z,109.85
2022-10-23T22:48:40.872Z,109.36
2022-10-23T22:51:10.430Z,109.09
2022-10-23T22:53:37.099Z,109.12
2022-10-23T22:56:08.935Z,109.32
2022-10-23T22:58:36.427Z,110.07
2022-10-23T23:01:13.199Z,109.84
2022-10-23T23:03:40.033Z,109.72
2022-10-23T23:06:07.950Z,109.73
2022-10-23T23:08:36.925Z,109.96
2022-10-23T23:11:05.009Z,109.71
2022-10-23T23:13:32.398Z,109.55
2022-10-23T23:15:59.211Z,109.49
2022-10-23T23:18:26.496Z,109.20
2022-10-23T23:20:53.127Z,109.29
2022-10-23T23:23:20.498Z,109.34
2022-10-23T23:25:49.687Z,109.21
2022-10-23T23:28:19.122Z,108.92
2022-10-23T23:33:23.649Z,109.09
2022-10-23T23:35:50.283Z,109.20
2022-10-23T23:38:16.970Z,108.92
2022-10-23T23:40:51.003Z,108.98
2022-10-23T23:43:18.112Z,108.83
2022-10-23T23:45:44.866Z,108.69
2022-10-23T23:48:11.721Z,108.63
2022-10-23T23:50:38.661Z,108.81
2022-10-23T23:53:05.625Z,109.62
2022-10-23T23:55:32.411Z,110.13
2022-10-23T23:57:59.134Z,110.53
